Pagrindinis puslapis
METAR-TAF:

METAR-TAF

Oro uostai :

Tokijas Haneda, Japonija

platuma: 35-33N, ilguma: 139-47E, Aukštis: 5 m

Dabartinis oras

Ataskaita buvo paskelbta 12 minutes, ne 17:30 UTC
Vėjas 7 kt iš Šiaurės Rytų
Temperatūra 7°C
Drėgmė 66%
Slėgis 1018 hPa
Matomumas 10 km arba daugiau
nėra debesų žemiau 1500 m ir nėra kamuolinių lietaus debesų

METAR: RJTT 071730Z 04007KT CAVOK 07/01 Q1018 NOSIG RMK A3008

Laikas: 02:42 (17:42 UTC)

Prognozė

Ataskaita buvo paskelbta 37 minutes, ne 17:05 UTC
Prognozė galioja nuo 07 metu 18 UTC su 09 metu 00 UTC
Vėjas 8 kt iš Šiaurės
Matomumas 10 km arba daugiau
Mažai debesys ne aukštis 3000 ft

TAF: RJTT 071705Z 0718/0900 36008KT 9999 FEW030

Orai ataskaitas ir orų prognozės (METAR, TAF).

turimą stotys yra geltonos ir raudonos taškus žemėlapyje.

Perkelti pele per norėdami pamatyti stoties vardą.

Tada spustelėkite, norėdami matyti oro stebėjimo ir prognozės.

Norėdami pakeisti žemėlapį: spustelėkite ant žalios mygtukų su juodo kryžiaus žemyn,; žalią mygtuką su brūkšneliu, jei norite nutolinti; arba žalių rodyklių gretimoms žemėlapius.


METAR-TAF: